Time;durP1;ratioP1;P1;durP2;ratioP2;P2;SDS_P1;SDS_P2;PMS_P1;PMS_P2;Temp;Humidity;BMP_temperature;BMP_pressure;BME280_temperature;BME280_humidity;BME280_pressure;Samples;Min_cycle;Max_cycle;Signal;HPM_P1;HPM_P2
2024/01/28 00:00:20;;;;;;;22.90;9.85;;;7.60;99.90;;;;;;4901328;29;20230;-76
2024/01/28 00:02:48;;;;;;;18.30;11.02;;;7.60;99.90;;;;;;4901406;29;20703;-79
2024/01/28 00:05:15;;;;;;;13.32;6.60;;;7.60;99.90;;;;;;4900943;29;20237;-76
2024/01/28 00:07:42;;;;;;;15.27;6.40;;;7.60;99.90;;;;;;4901243;29;20245;-79
2024/01/28 00:10:11;;;;;;;12.10;5.03;;;7.60;99.90;;;;;;4901894;29;20257;-78
2024/01/28 00:12:38;;;;;;;10.77;4.47;;;7.60;99.90;;;;;;4900804;29;20317;-76
2024/01/28 00:15:06;;;;;;;9.35;5.03;;;7.60;99.90;;;;;;4901374;29;20865;-76
2024/01/28 00:17:33;;;;;;;13.35;4.38;;;7.60;99.90;;;;;;4900439;29;20241;-76
2024/01/28 00:20:03;;;;;;;8.60;4.75;;;7.50;99.90;;;;;;4901228;29;20218;-76
2024/01/28 00:22:30;;;;;;;14.77;5.18;;;7.50;99.90;;;;;;4900419;29;20248;-78
2024/01/28 00:24:57;;;;;;;9.25;5.05;;;7.50;99.90;;;;;;4901340;29;20274;-79
2024/01/28 00:27:25;;;;;;;7.22;5.35;;;7.50;99.90;;;;;;4900337;29;20238;-76
2024/01/28 00:29:55;;;;;;;10.73;4.43;;;7.50;99.90;;;;;;4901257;29;20695;-76
2024/01/28 00:32:22;;;;;;;13.20;4.50;;;7.50;99.90;;;;;;4899610;29;20556;-78
2024/01/28 00:34:49;;;;;;;12.13;5.55;;;7.50;99.90;;;;;;4901283;29;20246;-75
2024/01/28 00:37:16;;;;;;;7.97;5.18;;;7.40;99.90;;;;;;4900924;29;20253;-78
2024/01/28 00:39:44;;;;;;;7.57;5.00;;;7.40;99.90;;;;;;4900365;29;20230;-75
2024/01/28 00:42:11;;;;;;;8.40;5.32;;;7.40;99.90;;;;;;4899420;29;20631;-78
2024/01/28 00:44:39;;;;;;;11.15;5.22;;;7.40;99.90;;;;;;4899490;29;20237;-75
2024/01/28 00:47:06;;;;;;;11.07;6.10;;;7.40;99.90;;;;;;4901376;29;20285;-78
2024/01/28 00:49:33;;;;;;;13.95;4.80;;;7.40;99.90;;;;;;4900309;29;20241;-76
2024/01/28 00:52:02;;;;;;;13.10;6.18;;;7.40;99.90;;;;;;4900329;29;20274;-76
2024/01/28 00:54:29;;;;;;;13.65;4.35;;;7.40;99.90;;;;;;4900426;29;20289;-79
2024/01/28 00:56:57;;;;;;;11.50;5.80;;;7.30;99.90;;;;;;4900775;29;20681;-78
2024/01/28 00:59:24;;;;;;;12.48;5.35;;;7.30;99.90;;;;;;4899505;29;20289;-76
2024/01/28 01:01:53;;;;;;;7.07;4.35;;;7.30;99.90;;;;;;4900044;29;20305;-78
2024/01/28 01:04:20;;;;;;;8.95;4.32;;;7.30;99.90;;;;;;4900287;29;20290;-75
2024/01/28 01:06:48;;;;;;;9.63;4.00;;;7.20;99.90;;;;;;4900061;29;20237;-78
2024/01/28 01:09:16;;;;;;;9.38;5.40;;;7.30;99.90;;;;;;4900357;29;20233;-75
2024/01/28 01:11:44;;;;;;;9.23;4.53;;;7.30;99.90;;;;;;4900153;29;20233;-76
2024/01/28 01:14:11;;;;;;;9.35;5.10;;;7.30;99.90;;;;;;4900527;29;20309;-75
2024/01/28 01:16:38;;;;;;;8.50;5.75;;;7.20;99.90;;;;;;4899640;29;20241;-75
2024/01/28 01:19:07;;;;;;;10.02;5.35;;;7.30;99.90;;;;;;4899540;29;20244;-75
2024/01/28 01:21:34;;;;;;;9.20;4.65;;;7.30;99.90;;;;;;4899536;29;20226;-78
2024/01/28 01:24:01;;;;;;;10.77;5.65;;;7.30;99.90;;;;;;4900177;29;20226;-76
2024/01/28 01:26:28;;;;;;;12.02;5.45;;;7.30;99.90;;;;;;4900118;29;20234;-75
2024/01/28 01:28:55;;;;;;;7.65;5.00;;;7.30;99.90;;;;;;4900404;29;20225;-75
2024/01/28 01:31:25;;;;;;;17.25;5.00;;;7.30;99.90;;;;;;4900484;29;20245;-75
2024/01/28 01:33:52;;;;;;;15.07;6.20;;;7.30;99.90;;;;;;4899222;29;20669;-78
2024/01/28 01:36:20;;;;;;;10.70;5.32;;;7.30;99.90;;;;;;4899935;29;20241;-78
2024/01/28 01:38:47;;;;;;;14.50;6.00;;;7.30;99.90;;;;;;4899573;29;20380;-78
2024/01/28 01:41:15;;;;;;;12.27;5.32;;;7.30;99.90;;;;;;4900369;29;20253;-78
2024/01/28 01:43:42;;;;;;;8.82;4.70;;;7.30;99.90;;;;;;4898752;29;20245;-78
2024/01/28 01:46:11;;;;;;;9.80;4.75;;;7.40;99.90;;;;;;4899584;29;20230;-78
2024/01/28 01:48:39;;;;;;;7.72;4.28;;;7.30;99.90;;;;;;4899236;29;20234;-78
2024/01/28 01:51:08;;;;;;;11.40;5.10;;;7.30;99.90;;;;;;4899704;29;20234;-79
2024/01/28 01:53:36;;;;;;;15.50;5.53;;;7.30;99.90;;;;;;4898400;29;20234;-78
2024/01/28 01:56:04;;;;;;;10.60;4.57;;;7.20;99.90;;;;;;4905558;29;20211;-78
2024/01/28 01:58:31;;;;;;;14.20;6.10;;;7.20;99.90;;;;;;4901717;29;20222;-78
2024/01/28 02:00:59;;;;;;;7.53;5.50;;;7.20;99.90;;;;;;4899965;29;20293;-78
2024/01/28 02:03:28;;;;;;;9.40;5.45;;;7.20;99.90;;;;;;4899094;29;20238;-78
2024/01/28 02:05:55;;;;;;;12.38;5.70;;;7.20;99.90;;;;;;4899799;29;20246;-78
2024/01/28 02:08:22;;;;;;;11.52;5.03;;;7.20;99.90;;;;;;4899049;29;20238;-78
2024/01/28 02:10:53;;;;;;;12.10;4.72;;;7.10;99.90;;;;;;4900199;29;20297;-79
2024/01/28 02:13:20;;;;;;;8.73;4.50;;;7.10;99.90;;;;;;4898441;29;20234;-78
2024/01/28 02:15:58;;;;;;;13.50;5.53;;;7.20;99.90;;;;;;4904026;29;20285;-76
2024/01/28 02:18:25;;;;;;;15.98;5.50;;;7.10;99.90;;;;;;4898432;29;20229;-78
2024/01/28 02:20:52;;;;;;;9.45;5.55;;;7.10;99.90;;;;;;4899215;29;20232;-78
2024/01/28 02:23:22;;;;;;;11.95;5.68;;;7.10;99.90;;;;;;4899254;29;20237;-79
2024/01/28 02:25:49;;;;;;;8.70;4.60;;;7.10;99.90;;;;;;4899075;29;20237;-75
2024/01/28 02:28:16;;;;;;;12.85;5.03;;;7.10;99.90;;;;;;4898570;29;20630;-76
2024/01/28 02:30:44;;;;;;;9.10;4.85;;;7.10;99.90;;;;;;4898597;29;20272;-75
2024/01/28 02:33:11;;;;;;;13.77;5.78;;;7.10;99.90;;;;;;4898699;29;20325;-76
2024/01/28 02:35:38;;;;;;;9.93;5.45;;;7.10;99.90;;;;;;4898494;29;20236;-75
2024/01/28 02:38:05;;;;;;;12.20;5.47;;;7.10;99.90;;;;;;4898804;29;20264;-75
2024/01/28 02:40:34;;;;;;;14.60;5.85;;;7.10;99.90;;;;;;4898047;29;20329;-75
2024/01/28 02:43:03;;;;;;;8.10;4.40;;;7.10;99.90;;;;;;4897692;29;20321;-76
2024/01/28 02:45:31;;;;;;;17.92;5.78;;;7.00;99.90;;;;;;4898319;29;20284;-75
2024/01/28 02:47:58;;;;;;;10.73;4.38;;;7.10;99.90;;;;;;4898760;29;20745;-75
2024/01/28 02:50:25;;;;;;;8.15;4.60;;;7.10;99.90;;;;;;4898262;29;20309;-76
2024/01/28 02:52:52;;;;;;;9.18;4.47;;;7.10;99.90;;;;;;4898584;29;20592;-75
2024/01/28 02:55:19;;;;;;;8.05;4.93;;;7.10;99.90;;;;;;4897528;29;20272;-75
2024/01/28 02:57:48;;;;;;;7.55;4.32;;;7.10;99.90;;;;;;4898667;29;20560;-75
2024/01/28 03:00:16;;;;;;;15.05;4.93;;;7.10;99.90;;;;;;4898669;29;20234;-78
2024/01/28 03:02:44;;;;;;;13.45;6.00;;;7.10;99.90;;;;;;4898046;29;20226;-78
2024/01/28 03:05:11;;;;;;;10.88;4.80;;;7.10;99.90;;;;;;4898000;29;20317;-78
2024/01/28 03:07:38;;;;;;;13.27;6.03;;;7.00;99.90;;;;;;4897903;29;20233;-75
2024/01/28 03:10:07;;;;;;;8.05;5.10;;;7.10;99.90;;;;;;4897643;29;20264;-74
2024/01/28 03:12:34;;;;;;;11.48;5.13;;;7.00;99.90;;;;;;4898053;29;20229;-77
2024/01/28 03:15:03;;;;;;;10.93;5.20;;;7.00;99.90;;;;;;4888655;29;20245;-77
2024/01/28 03:17:30;;;;;;;13.65;6.18;;;7.00;99.90;;;;;;4897612;29;20290;-78
2024/01/28 03:19:57;;;;;;;7.80;4.88;;;7.00;99.90;;;;;;4898284;29;20226;-77
2024/01/28 03:22:25;;;;;;;11.55;5.50;;;7.00;99.90;;;;;;4897266;29;20233;-78
2024/01/28 03:24:52;;;;;;;8.77;4.90;;;7.00;99.90;;;;;;4898185;29;20234;-75
2024/01/28 03:27:19;;;;;;;10.00;5.28;;;6.90;99.90;;;;;;4898293;29;21026;-78
2024/01/28 03:29:46;;;;;;;14.30;5.65;;;6.90;99.90;;;;;;4897645;29;20900;-78
2024/01/28 03:32:14;;;;;;;17.08;5.70;;;6.90;99.90;;;;;;4897314;29;20233;-78
2024/01/28 03:34:41;;;;;;;10.63;5.80;;;6.90;99.90;;;;;;4897557;29;20234;-78
2024/01/28 03:37:08;;;;;;;9.68;4.78;;;6.90;99.90;;;;;;4897588;29;20282;-78
2024/01/28 03:39:38;;;;;;;10.40;5.00;;;6.80;99.90;;;;;;4897770;29;20305;-78
2024/01/28 03:42:05;;;;;;;9.90;5.22;;;6.80;99.90;;;;;;4898224;29;20237;-78
2024/01/28 03:44:32;;;;;;;12.90;6.40;;;6.80;99.90;;;;;;4897252;29;20261;-76
2024/01/28 03:47:00;;;;;;;15.27;6.18;;;6.80;99.90;;;;;;4897934;29;20259;-75
2024/01/28 03:49:28;;;;;;;11.27;5.50;;;6.80;99.90;;;;;;4897151;29;20296;-76
2024/01/28 03:51:55;;;;;;;18.88;6.47;;;6.70;99.90;;;;;;4897625;29;20234;-75
2024/01/28 03:54:22;;;;;;;11.63;4.57;;;6.70;99.90;;;;;;4898045;29;20226;-75
2024/01/28 03:56:49;;;;;;;12.15;5.28;;;6.70;99.90;;;;;;4897497;29;20230;-78
2024/01/28 03:59:16;;;;;;;19.92;6.63;;;6.70;99.90;;;;;;4897867;29;20816;-78
2024/01/28 04:01:44;;;;;;;9.52;4.45;;;6.70;99.90;;;;;;4897372;29;20315;-75
2024/01/28 04:04:11;;;;;;;15.57;4.95;;;6.70;99.90;;;;;;4897658;29;20249;-75
2024/01/28 04:06:44;;;;;;;6.57;4.65;;;6.70;99.90;;;;;;4897040;29;20241;-76
2024/01/28 04:09:12;;;;;;;9.35;4.82;;;6.60;99.90;;;;;;4898098;29;20226;-75
2024/01/28 04:11:39;;;;;;;5.63;4.07;;;6.70;99.90;;;;;;4897344;29;20313;-78
2024/01/28 04:14:06;;;;;;;6.80;4.60;;;6.70;99.90;;;;;;4897873;29;20234;-75
2024/01/28 04:16:34;;;;;;;11.00;4.50;;;6.70;99.90;;;;;;4899808;29;20233;-75
2024/01/28 04:19:01;;;;;;;9.40;4.65;;;6.70;99.90;;;;;;4901035;29;20222;-78
2024/01/28 04:21:28;;;;;;;12.75;5.75;;;6.70;99.90;;;;;;4900829;29;20226;-78
2024/01/28 04:23:57;;;;;;;12.25;5.88;;;6.70;99.90;;;;;;4901046;29;20784;-76
2024/01/28 04:26:24;;;;;;;9.30;5.20;;;6.70;99.90;;;;;;4901389;29;20230;-75
2024/01/28 04:28:51;;;;;;;10.45;4.72;;;6.70;99.90;;;;;;4900409;29;20230;-76
2024/01/28 04:31:19;;;;;;;8.82;5.90;;;6.70;99.90;;;;;;4900871;29;20708;-75
2024/01/28 04:33:46;;;;;;;11.25;5.50;;;6.70;99.90;;;;;;4900418;29;20258;-75
2024/01/28 04:36:15;;;;;;;14.77;5.38;;;6.70;99.90;;;;;;4901026;29;20226;-75
2024/01/28 04:38:42;;;;;;;13.25;5.45;;;6.70;99.90;;;;;;4891094;29;20234;-78
2024/01/28 04:41:10;;;;;;;8.40;5.85;;;6.70;99.90;;;;;;4901362;29;20565;-78
2024/01/28 04:43:39;;;;;;;7.68;4.45;;;6.70;99.90;;;;;;4900339;29;20234;-76
2024/01/28 04:46:06;;;;;;;8.52;5.00;;;6.70;99.90;;;;;;4901240;29;20237;-78
2024/01/28 04:48:37;;;;;;;10.63;5.20;;;6.70;99.90;;;;;;4899648;29;20692;-78
2024/01/28 04:51:04;;;;;;;9.15;4.70;;;6.70;99.90;;;;;;4901593;29;20581;-78
2024/01/28 04:53:31;;;;;;;12.40;6.15;;;6.70;99.90;;;;;;4901537;29;20234;-76
2024/01/28 04:55:57;;;;;;;10.57;5.30;;;6.60;99.90;;;;;;4899705;29;20226;-75
2024/01/28 04:58:26;;;;;;;12.77;5.57;;;6.60;99.90;;;;;;4900798;29;20599;-75
2024/01/28 05:00:54;;;;;;;10.40;5.82;;;6.60;99.90;;;;;;4900116;29;20572;-75
2024/01/28 05:03:21;;;;;;;8.65;5.15;;;6.60;99.90;;;;;;4900530;29;20651;-75
2024/01/28 05:05:48;;;;;;;7.25;5.90;;;6.60;99.90;;;;;;4899209;29;20230;-76
2024/01/28 05:08:15;;;;;;;14.80;5.60;;;6.60;99.90;;;;;;4900262;29;20234;-78
2024/01/28 05:10:45;;;;;;;10.73;5.75;;;6.60;99.90;;;;;;4899995;29;20289;-78
2024/01/28 05:13:12;;;;;;;15.98;7.55;;;6.50;99.90;;;;;;4900036;29;20234;-78
2024/01/28 05:15:41;;;;;;;14.73;8.02;;;6.50;99.90;;;;;;4899557;29;20234;-78
2024/01/28 05:18:08;;;;;;;14.77;6.47;;;6.40;99.90;;;;;;4900111;29;20238;-78
2024/01/28 05:20:39;;;;;;;16.02;5.72;;;6.50;99.90;;;;;;4900019;29;20234;-78
2024/01/28 05:23:09;;;;;;;17.42;6.28;;;6.40;99.90;;;;;;4899920;29;20230;-79
2024/01/28 05:25:36;;;;;;;9.80;6.03;;;6.40;99.90;;;;;;4900057;29;20629;-79
2024/01/28 05:28:04;;;;;;;10.88;5.22;;;6.30;99.90;;;;;;4898690;29;20233;-78
2024/01/28 05:30:32;;;;;;;12.15;4.80;;;6.30;99.90;;;;;;4899555;29;20245;-78
2024/01/28 05:33:00;;;;;;;11.43;5.50;;;6.20;99.90;;;;;;4898833;29;20268;-76
2024/01/28 05:35:30;;;;;;;8.57;5.53;;;6.20;99.90;;;;;;4899615;29;20237;-75
2024/01/28 05:37:56;;;;;;;10.73;5.22;;;6.20;99.90;;;;;;4899227;29;20647;-78
2024/01/28 05:40:25;;;;;;;8.97;4.70;;;6.10;99.90;;;;;;4899979;29;20310;-76
2024/01/28 05:42:52;;;;;;;11.98;5.90;;;6.10;99.90;;;;;;4898925;29;20490;-75
2024/01/28 05:45:19;;;;;;;10.35;6.30;;;6.10;99.90;;;;;;4900009;29;20222;-75
2024/01/28 05:47:47;;;;;;;7.68;4.35;;;6.00;99.90;;;;;;4899533;29;20543;-78
2024/01/28 05:50:15;;;;;;;9.30;4.47;;;6.00;99.90;;;;;;4899697;29;20772;-75
2024/01/28 05:52:42;;;;;;;7.15;5.15;;;6.00;99.90;;;;;;4899648;29;20230;-78
2024/01/28 05:55:10;;;;;;;11.27;4.75;;;6.00;99.90;;;;;;4899456;29;20218;-75
2024/01/28 05:57:37;;;;;;;9.30;5.70;;;6.00;99.90;;;;;;4899392;29;20305;-75
2024/01/28 06:00:06;;;;;;;6.82;4.45;;;6.00;99.90;;;;;;4899120;29;20313;-76
2024/01/28 06:02:33;;;;;;;8.48;4.60;;;5.90;99.90;;;;;;4899176;29;20241;-78
2024/01/28 06:05:00;;;;;;;7.72;4.18;;;5.90;99.90;;;;;;4898649;29;20230;-78
2024/01/28 06:07:28;;;;;;;10.73;4.65;;;5.90;99.90;;;;;;4899141;29;20230;-78
2024/01/28 06:09:55;;;;;;;8.98;4.47;;;5.90;99.90;;;;;;4898640;29;20699;-78
2024/01/28 06:12:22;;;;;;;7.70;5.05;;;5.90;99.90;;;;;;4899176;29;20241;-78
2024/01/28 06:14:49;;;;;;;5.50;3.70;;;5.80;99.90;;;;;;4898849;29;20228;-78
2024/01/28 06:17:16;;;;;;;16.88;6.20;;;5.80;99.90;;;;;;4899072;29;20261;-78
2024/01/28 06:19:44;;;;;;;8.10;3.53;;;5.80;99.90;;;;;;4899063;29;20226;-78
2024/01/28 06:22:11;;;;;;;5.63;3.50;;;5.80;99.90;;;;;;4898325;29;20249;-78
2024/01/28 06:24:44;;;;;;;6.82;4.18;;;5.80;99.90;;;;;;4899273;29;20707;-76
2024/01/28 06:27:12;;;;;;;9.25;4.80;;;5.80;99.90;;;;;;4898535;29;20222;-75
2024/01/28 06:29:39;;;;;;;8.68;4.80;;;5.80;99.90;;;;;;4898161;29;20317;-76
2024/01/28 06:32:06;;;;;;;12.35;4.00;;;5.80;99.90;;;;;;4898332;29;20234;-76
2024/01/28 06:34:33;;;;;;;9.63;4.45;;;5.80;99.90;;;;;;4898611;29;20249;-75
2024/01/28 06:37:00;;;;;;;10.50;4.43;;;5.80;99.90;;;;;;4898389;29;20252;-76
2024/01/28 06:39:27;;;;;;;11.73;4.68;;;5.80;99.90;;;;;;4898598;29;20230;-75
2024/01/28 06:41:56;;;;;;;9.57;4.07;;;5.80;99.90;;;;;;4897519;29;20230;-76
2024/01/28 06:44:23;;;;;;;12.07;5.53;;;5.70;99.90;;;;;;4898946;29;20233;-75
2024/01/28 06:46:49;;;;;;;11.60;4.20;;;5.70;99.90;;;;;;4898145;29;20222;-76
2024/01/28 06:49:16;;;;;;;9.90;4.03;;;5.60;99.90;;;;;;4898426;29;20234;-76
2024/01/28 06:51:47;;;;;;;14.95;5.10;;;5.70;99.90;;;;;;4898208;29;20241;-76
2024/01/28 06:54:14;;;;;;;9.88;4.75;;;5.60;99.90;;;;;;4898055;29;20234;-76
2024/01/28 06:56:41;;;;;;;7.07;3.88;;;5.60;99.90;;;;;;4898613;29;20229;-75
2024/01/28 06:59:09;;;;;;;9.68;4.25;;;5.60;99.90;;;;;;4898232;29;20241;-78
2024/01/28 07:01:36;;;;;;;7.38;4.45;;;5.60;99.90;;;;;;4898516;29;20242;-76
2024/01/28 07:04:04;;;;;;;12.45;4.95;;;5.60;99.90;;;;;;4897800;29;20239;-75
2024/01/28 07:06:31;;;;;;;8.98;5.05;;;5.60;99.90;;;;;;4898388;29;20225;-75
2024/01/28 07:08:58;;;;;;;11.98;5.32;;;5.50;99.90;;;;;;4897458;29;20234;-75
2024/01/28 07:11:25;;;;;;;6.95;5.07;;;5.50;99.90;;;;;;4898588;29;20226;-78
2024/01/28 07:13:52;;;;;;;7.28;5.20;;;5.50;99.90;;;;;;4897737;29;20684;-76
2024/01/28 07:16:21;;;;;;;9.30;5.10;;;5.40;99.90;;;;;;4898220;29;20233;-75
2024/01/28 07:18:49;;;;;;;12.20;5.70;;;5.50;99.90;;;;;;4898411;29;20610;-78
2024/01/28 07:21:16;;;;;;;7.25;5.15;;;5.40;99.90;;;;;;4897642;29;20539;-79
2024/01/28 07:23:43;;;;;;;12.23;5.60;;;5.40;99.90;;;;;;4898078;29;20230;-78
2024/01/28 07:26:10;;;;;;;19.20;6.05;;;5.40;99.90;;;;;;4898797;29;20234;-78
2024/01/28 07:28:37;;;;;;;17.13;6.85;;;5.40;99.90;;;;;;4898149;29;20769;-78
2024/01/28 07:31:06;;;;;;;13.48;7.15;;;5.40;99.90;;;;;;4897649;29;20232;-78
2024/01/28 07:33:34;;;;;;;10.38;6.38;;;5.40;99.90;;;;;;4897941;29;20586;-79
2024/01/28 07:36:01;;;;;;;8.13;4.55;;;5.40;99.90;;;;;;4897441;29;20321;-76
2024/01/28 07:38:29;;;;;;;9.38;5.97;;;5.50;99.90;;;;;;4898140;29;20768;-78
2024/01/28 07:40:56;;;;;;;10.25;5.80;;;5.40;99.90;;;;;;4897443;29;20222;-76
2024/01/28 07:43:24;;;;;;;12.95;6.40;;;5.40;99.90;;;;;;4897633;29;20547;-75
2024/01/28 07:45:51;;;;;;;13.73;6.22;;;5.40;99.90;;;;;;4898002;29;20234;-75
2024/01/28 07:48:18;;;;;;;10.80;5.60;;;5.40;99.90;;;;;;4897295;29;20226;-75
2024/01/28 07:50:49;;;;;;;10.93;5.47;;;5.40;99.90;;;;;;4899392;29;20229;-75
2024/01/28 07:53:16;;;;;;;14.38;5.72;;;5.40;99.90;;;;;;4900990;29;20232;-75
2024/01/28 07:55:43;;;;;;;11.10;6.63;;;5.40;99.90;;;;;;4901934;29;20540;-75
2024/01/28 07:58:13;;;;;;;11.10;6.78;;;5.40;99.90;;;;;;4901110;29;20697;-78
2024/01/28 08:00:40;;;;;;;12.50;6.30;;;5.50;99.90;;;;;;4901702;29;20577;-78
2024/01/28 08:03:07;;;;;;;14.55;6.55;;;5.50;99.90;;;;;;4901104;29;20230;-78
2024/01/28 08:05:35;;;;;;;10.88;5.93;;;5.60;99.90;;;;;;4901443;29;20233;-78
2024/01/28 08:08:03;;;;;;;12.43;7.45;;;5.60;99.90;;;;;;4901222;29;20226;-75
2024/01/28 08:10:30;;;;;;;8.68;6.75;;;5.60;99.90;;;;;;4901770;29;20669;-78
2024/01/28 08:12:57;;;;;;;14.63;6.00;;;5.60;99.90;;;;;;4900674;29;20230;-78
2024/01/28 08:15:29;;;;;;;7.38;6.20;;;5.70;99.90;;;;;;4902262;29;20253;-76
2024/01/28 08:17:56;;;;;;;8.52;6.00;;;5.70;99.90;;;;;;4901955;29;20257;-78
2024/01/28 08:20:25;;;;;;;8.63;6.13;;;5.70;99.90;;;;;;4901073;29;20250;-78
2024/01/28 08:22:52;;;;;;;7.28;6.38;;;5.80;99.90;;;;;;4901032;29;20234;-78
2024/01/28 08:25:21;;;;;;;9.48;6.75;;;5.80;99.90;;;;;;4901026;29;20230;-75
2024/01/28 08:27:50;;;;;;;11.38;5.90;;;5.80;99.90;;;;;;4901153;29;20233;-75
2024/01/28 08:30:22;;;;;;;15.38;6.38;;;5.80;99.90;;;;;;4900391;29;20785;-77
2024/01/28 08:32:49;;;;;;;13.82;7.55;;;5.90;99.90;;;;;;4900898;29;20302;-80
2024/01/28 08:35:21;;;;;;;12.73;6.70;;;5.80;99.90;;;;;;4899781;29;20244;-79
2024/01/28 08:37:48;;;;;;;8.75;6.10;;;5.80;99.90;;;;;;4901639;29;20290;-79
2024/01/28 08:40:15;;;;;;;10.20;6.53;;;5.80;99.90;;;;;;4900405;29;20309;-76
2024/01/28 08:42:43;;;;;;;20.40;9.30;;;5.80;99.90;;;;;;4900096;29;20673;-76
2024/01/28 08:45:11;;;;;;;8.68;6.63;;;5.80;99.90;;;;;;4899272;29;20238;-79
2024/01/28 08:47:39;;;;;;;10.55;6.45;;;5.80;99.90;;;;;;4900667;29;20222;-79
2024/01/28 08:50:08;;;;;;;12.88;6.63;;;5.80;99.90;;;;;;4900347;29;20240;-79
2024/01/28 08:52:39;;;;;;;11.27;6.43;;;5.90;99.90;;;;;;4900092;29;20241;-79
2024/01/28 08:55:07;;;;;;;10.05;7.15;;;5.90;99.90;;;;;;4901810;29;20230;-77
2024/01/28 08:57:34;;;;;;;11.18;6.85;;;5.90;99.90;;;;;;4900364;29;20677;-78
2024/01/28 09:00:05;;;;;;;12.75;7.90;;;6.00;99.90;;;;;;4900992;29;20226;-77
2024/01/28 09:02:35;;;;;;;15.20;7.72;;;6.00;99.90;;;;;;4899018;29;20230;-79
2024/01/28 09:05:03;;;;;;;14.25;6.75;;;6.10;99.90;;;;;;4891236;29;20234;-79
2024/01/28 09:07:31;;;;;;;13.63;7.05;;;6.00;99.90;;;;;;4897079;29;20282;-76
2024/01/28 09:09:58;;;;;;;13.23;7.60;;;6.10;99.90;;;;;;4900825;29;20226;-74
2024/01/28 09:12:25;;;;;;;12.90;7.10;;;6.20;99.90;;;;;;4899771;29;20230;-78
2024/01/28 09:14:53;;;;;;;10.35;6.15;;;6.20;99.90;;;;;;4900292;29;20233;-77
2024/01/28 09:17:24;;;;;;;8.85;6.68;;;6.30;99.90;;;;;;4899442;29;20230;-77
2024/01/28 09:20:29;;;;;;;10.60;7.05;;;6.40;99.90;;;;;;4890171;29;20234;-76
2024/01/28 09:22:57;;;;;;;10.15;7.07;;;6.40;99.90;;;;;;4902006;29;20225;-77
2024/01/28 09:28:49;;;;;;;9.80;7.72;;;6.50;99.90;;;;;;4888962;29;20656;-76
2024/01/28 09:31:39;;;;;;;12.65;8.25;;;6.60;99.90;;;;;;4889843;29;20222;-78
2024/01/28 09:34:08;;;;;;;13.90;9.48;;;6.70;99.90;;;;;;4901026;29;20238;-76
2024/01/28 09:36:35;;;;;;;18.65;10.90;;;6.70;99.90;;;;;;4899515;29;20301;-76
2024/01/28 09:39:02;;;;;;;11.90;9.10;;;6.80;99.90;;;;;;4899570;29;20257;-76
2024/01/28 09:41:37;;;;;;;14.27;7.75;;;6.80;99.90;;;;;;4899180;29;20691;-76
2024/01/28 09:44:05;;;;;;;7.97;6.40;;;6.90;99.90;;;;;;4899336;29;20245;-76
2024/01/28 09:46:32;;;;;;;8.40;5.95;;;7.00;99.90;;;;;;4898912;29;20237;-76
2024/01/28 09:49:00;;;;;;;13.40;7.30;;;7.00;99.90;;;;;;4899459;29;20301;-76
2024/01/28 09:51:30;;;;;;;10.40;5.80;;;7.10;99.90;;;;;;4900151;29;20234;-77
2024/01/28 09:53:57;;;;;;;14.85;7.00;;;7.10;99.90;;;;;;4899534;29;20568;-79
2024/01/28 09:56:25;;;;;;;9.90;6.00;;;7.20;99.90;;;;;;4899194;29;20237;-79
2024/01/28 09:58:57;;;;;;;12.25;6.38;;;7.20;99.90;;;;;;4899483;29;20225;-80
2024/01/28 10:01:26;;;;;;;14.48;6.53;;;7.30;99.90;;;;;;4898724;29;20293;-76
2024/01/28 10:03:55;;;;;;;11.68;6.07;;;7.30;99.90;;;;;;4898931;29;20238;-76
2024/01/28 10:06:22;;;;;;;8.95;5.65;;;7.30;99.90;;;;;;4898829;29;20237;-77
2024/01/28 10:08:50;;;;;;;16.33;6.60;;;7.40;99.90;;;;;;4899193;29;20222;-76
2024/01/28 10:11:17;;;;;;;11.73;6.15;;;7.50;99.90;;;;;;4898819;29;20717;-77
2024/01/28 10:13:45;;;;;;;10.52;5.90;;;7.50;99.90;;;;;;4898573;29;20226;-76
2024/01/28 10:16:12;;;;;;;9.35;5.18;;;7.60;99.90;;;;;;4899190;29;20238;-79
2024/01/28 10:18:39;;;;;;;9.48;5.32;;;7.60;99.90;;;;;;4898495;29;20222;-79
2024/01/28 10:21:06;;;;;;;12.52;5.63;;;7.60;99.90;;;;;;4899220;29;20229;-79
2024/01/28 10:23:36;;;;;;;10.07;5.85;;;7.70;99.90;;;;;;4897276;29;20703;-80
2024/01/28 10:26:06;;;;;;;11.35;6.25;;;7.70;99.90;;;;;;4899162;29;20711;-76
2024/01/28 10:28:33;;;;;;;14.60;6.15;;;7.80;99.90;;;;;;4898366;29;20234;-77
2024/01/28 10:31:00;;;;;;;8.77;5.28;;;7.80;99.90;;;;;;4898466;29;20258;-76
2024/01/28 10:33:27;;;;;;;13.35;6.65;;;7.90;99.90;;;;;;4898229;29;20244;-77
2024/01/28 10:35:55;;;;;;;14.27;6.93;;;7.90;99.90;;;;;;4898640;29;20241;-76
2024/01/28 10:38:26;;;;;;;9.68;6.22;;;7.90;99.90;;;;;;4898390;29;20294;-76
2024/01/28 10:40:53;;;;;;;8.43;6.30;;;8.00;99.90;;;;;;4898781;29;20602;-79
2024/01/28 10:43:27;;;;;;;13.15;5.53;;;8.00;99.90;;;;;;4897857;29;20316;-76
2024/01/28 10:46:00;;;;;;;10.38;6.32;;;8.10;99.90;;;;;;4898634;29;20226;-77
2024/01/28 10:48:30;;;;;;;9.00;5.03;;;8.20;99.90;;;;;;4897907;29;20233;-76
2024/01/28 10:51:00;;;;;;;8.18;5.43;;;8.20;99.90;;;;;;4898704;29;20230;-76
2024/01/28 10:53:29;;;;;;;15.07;10.07;;;8.30;99.90;;;;;;4897989;29;20234;-76
2024/01/28 10:55:56;;;;;;;13.55;6.60;;;8.30;99.90;;;;;;4898275;29;20237;-76
2024/01/28 10:58:26;;;;;;;7.30;5.30;;;8.40;99.90;;;;;;4898192;29;20234;-76
2024/01/28 11:00:53;;;;;;;8.05;5.30;;;8.40;99.90;;;;;;4898267;29;20226;-78
2024/01/28 11:03:20;;;;;;;10.68;5.68;;;8.50;99.90;;;;;;4897991;29;20572;-78
2024/01/28 11:05:48;;;;;;;12.05;5.90;;;8.60;99.90;;;;;;4898037;29;20217;-76
2024/01/28 11:08:15;;;;;;;13.65;7.75;;;8.60;99.90;;;;;;4898252;29;20238;-75
2024/01/28 11:10:42;;;;;;;9.80;4.82;;;8.70;99.90;;;;;;4897937;29;20226;-76
2024/01/28 11:13:10;;;;;;;13.48;6.38;;;8.70;99.90;;;;;;4898300;29;20230;-75
2024/01/28 11:15:42;;;;;;;9.95;5.20;;;8.70;99.90;;;;;;4897405;29;20241;-78
2024/01/28 11:18:10;;;;;;;12.43;5.72;;;8.80;99.90;;;;;;4898211;29;20229;-78
2024/01/28 11:20:38;;;;;;;8.23;5.70;;;8.80;99.90;;;;;;4897528;29;20681;-78
2024/01/28 11:23:06;;;;;;;12.90;7.20;;;8.90;99.90;;;;;;4898243;29;20230;-79
2024/01/28 11:25:36;;;;;;;9.65;5.00;;;8.90;99.90;;;;;;4895856;29;20225;-78
2024/01/28 11:28:06;;;;;;;12.50;5.57;;;8.90;99.90;;;;;;4898182;29;20240;-79
2024/01/28 11:30:35;;;;;;;12.20;5.50;;;8.90;99.90;;;;;;4897737;29;20581;-75
2024/01/28 11:33:11;;;;;;;8.80;5.97;;;8.90;99.90;;;;;;4897754;29;20248;-75
2024/01/28 11:35:41;;;;;;;9.00;5.13;;;8.90;99.90;;;;;;4897674;29;20230;-79
2024/01/28 11:38:10;;;;;;;12.48;6.43;;;9.00;99.90;;;;;;4898154;29;20297;-78
2024/01/28 11:43:19;;;;;;;9.23;5.38;;;9.00;99.90;;;;;;4863896;29;20230;-79
2024/01/28 11:45:46;;;;;;;9.05;5.55;;;9.10;99.90;;;;;;4897472;29;20561;-79
2024/01/28 11:48:15;;;;;;;7.63;5.32;;;9.10;99.90;;;;;;4897916;29;20269;-79
2024/01/28 11:50:43;;;;;;;9.05;5.20;;;9.10;99.90;;;;;;4897106;29;20245;-79
2024/01/28 11:53:10;;;;;;;16.45;6.85;;;9.10;99.90;;;;;;4897937;29;20234;-79
2024/01/28 11:55:37;;;;;;;10.23;5.78;;;9.10;99.90;;;;;;4897075;29;20230;-79
2024/01/28 11:58:06;;;;;;;13.98;5.60;;;9.10;99.90;;;;;;4897652;29;20233;-79
2024/01/28 12:00:33;;;;;;;6.78;4.57;;;9.10;99.90;;;;;;4897498;29;20234;-79
2024/01/28 12:03:00;;;;;;;12.00;6.68;;;9.20;99.90;;;;;;4897500;29;20230;-79
2024/01/28 12:05:29;;;;;;;9.07;7.63;;;9.20;99.90;;;;;;4896665;29;20230;-79
2024/01/28 12:07:59;;;;;;;12.45;7.38;;;9.10;99.90;;;;;;4897268;29;20234;-79
2024/01/28 12:10:26;;;;;;;17.67;7.45;;;9.10;99.90;;;;;;4897116;29;20234;-79
2024/01/28 12:12:58;;;;;;;10.55;5.53;;;9.20;99.90;;;;;;4897511;29;20241;-79
2024/01/28 12:15:25;;;;;;;7.53;5.15;;;9.20;99.90;;;;;;4897556;29;20248;-79
2024/01/28 12:17:53;;;;;;;9.45;6.00;;;9.30;99.90;;;;;;4897546;29;20226;-79
2024/01/28 12:20:21;;;;;;;7.68;4.70;;;9.30;99.90;;;;;;4897421;29;20230;-79
2024/01/28 12:22:49;;;;;;;10.35;5.97;;;9.30;99.90;;;;;;4897082;29;20297;-79
2024/01/28 12:25:21;;;;;;;7.75;4.50;;;9.30;99.90;;;;;;4897855;29;20230;-79
2024/01/28 12:27:49;;;;;;;5.97;4.40;;;9.40;99.90;;;;;;4897082;29;20258;-79
2024/01/28 12:30:17;;;;;;;7.68;4.90;;;9.40;99.90;;;;;;4897341;29;20234;-79
2024/01/28 12:32:44;;;;;;;7.28;4.95;;;9.50;99.90;;;;;;4897078;29;20231;-79
2024/01/28 12:35:12;;;;;;;10.40;6.22;;;9.50;99.90;;;;;;4897567;29;20234;-79
2024/01/28 12:37:43;;;;;;;5.35;4.13;;;9.50;99.90;;;;;;4899967;29;20234;-79
2024/01/28 12:40:12;;;;;;;8.20;5.32;;;9.50;99.90;;;;;;4900955;29;20282;-79
2024/01/28 12:42:40;;;;;;;7.68;5.18;;;9.60;99.90;;;;;;4900935;29;20245;-79
2024/01/28 12:45:08;;;;;;;7.45;4.13;;;9.60;99.90;;;;;;4900892;29;20623;-79
2024/01/28 12:47:37;;;;;;;9.80;5.50;;;9.60;99.90;;;;;;4899786;29;20250;-79
2024/01/28 12:50:05;;;;;;;7.80;5.00;;;9.60;99.90;;;;;;4900413;29;20230;-79
2024/01/28 12:52:32;;;;;;;8.68;4.93;;;9.60;99.90;;;;;;4900099;29;20238;-79
2024/01/28 12:54:59;;;;;;;6.28;3.72;;;9.70;99.90;;;;;;4900814;29;20301;-79
2024/01/28 12:57:28;;;;;;;8.38;4.45;;;9.70;99.90;;;;;;4900664;29;20268;-79
2024/01/28 12:59:55;;;;;;;6.28;4.40;;;9.70;99.90;;;;;;4900287;29;20226;-79